CCA720 LHBP-ZBAA
Flight info
| Callsign | CCA720 |
|---|---|
| Flight time | N/A |
| Altitude | 37000 |
| Route | VETIK DCT UVERA DCT IBINU DCT BUKEL DCT DINRO N743 UDROS/N0489F390 UM859 KARDE UN644 ROLIN N644 LAGAS M747 SUBUT T916 BALUN/K0893F390 T916 INLIG/K0898F410 T916 PIGAL M610 RULAD/K0896S1250 A343 POSOT B215 FKG W188 LIKMI W270 DKO W69 GUVBA GUVBA6J |
| Aircraft | A359/H-SDE2E3GHIJ3J4J5LM1ORWXY/LB1D1 |
Departure
| Time | 2026-05-04 04:18 |
|---|---|
| Airport | Budapest Liszt Ferenc International Airport (LHBP) |
Arrival
| Time | N/A |
|---|---|
| Airport | Beijing Capital International Airport (ZBAA) |
| Time | Latitude | Longitude | Altitude | Speed | Heading |
|---|---|---|---|---|---|
| 2026-05-04 03:44 | 47.43289 | 19.25691 | 461 ft | 0 kts | 43° |
| 2026-05-04 03:51 | 47.43294 | 19.25697 | 464 ft | 0 kts | 43° |
| 2026-05-04 03:52 | 47.43289 | 19.25691 | 464 ft | 0 kts | 43° |
| 2026-05-04 04:08 | 47.43290 | 19.25692 | 463 ft | 5 kts | 43° |
| 2026-05-04 04:08 | 47.43300 | 19.25706 | 463 ft | 3 kts | 41° |
| 2026-05-04 04:08 | 47.43281 | 19.25685 | 462 ft | 3 kts | 30° |
| 2026-05-04 04:08 | 47.43260 | 19.25670 | 461 ft | 3 kts | 17° |
| 2026-05-04 04:09 | 47.43238 | 19.25663 | 462 ft | 3 kts | 0° |
| 2026-05-04 04:09 | 47.43214 | 19.25666 | 460 ft | 3 kts | 343° |
| 2026-05-04 04:09 | 47.43193 | 19.25679 | 459 ft | 3 kts | 324° |
| 2026-05-04 04:09 | 47.43179 | 19.25697 | 460 ft | 0 kts | 312° |
| 2026-05-04 04:10 | 47.43185 | 19.25687 | 458 ft | 0 kts | 312° |
| 2026-05-04 04:12 | 47.43186 | 19.25686 | 463 ft | 3 kts | 312° |
| 2026-05-04 04:12 | 47.43229 | 19.25617 | 463 ft | 12 kts | 312° |
| 2026-05-04 04:12 | 47.43286 | 19.25524 | 463 ft | 14 kts | 312° |
| 2026-05-04 04:12 | 47.43355 | 19.25412 | 463 ft | 15 kts | 312° |
| 2026-05-04 04:13 | 47.43433 | 19.25318 | 463 ft | 12 kts | 356° |
| 2026-05-04 04:13 | 47.43503 | 19.25385 | 463 ft | 13 kts | 42° |
| 2026-05-04 04:13 | 47.43571 | 19.25476 | 463 ft | 14 kts | 42° |
| 2026-05-04 04:13 | 47.43647 | 19.25577 | 463 ft | 15 kts | 42° |
| 2026-05-04 04:14 | 47.43729 | 19.25687 | 463 ft | 17 kts | 42° |
| 2026-05-04 04:14 | 47.43817 | 19.25805 | 463 ft | 18 kts | 42° |
| 2026-05-04 04:14 | 47.43911 | 19.25930 | 464 ft | 19 kts | 42° |
| 2026-05-04 04:14 | 47.44006 | 19.26038 | 464 ft | 8 kts | 8° |
| 2026-05-04 04:15 | 47.44046 | 19.26004 | 464 ft | 7 kts | 314° |
| 2026-05-04 04:15 | 47.44082 | 19.25941 | 464 ft | 9 kts | 310° |
| 2026-05-04 04:15 | 47.44127 | 19.25864 | 464 ft | 11 kts | 311° |
| 2026-05-04 04:15 | 47.44180 | 19.25777 | 464 ft | 12 kts | 311° |
| 2026-05-04 04:16 | 47.44243 | 19.25675 | 464 ft | 15 kts | 313° |
| 2026-05-04 04:16 | 47.44327 | 19.25574 | 464 ft | 16 kts | 335° |
| 2026-05-04 04:16 | 47.44431 | 19.25571 | 464 ft | 15 kts | 17° |
| 2026-05-04 04:16 | 47.44495 | 19.25642 | 467 ft | 7 kts | 61° |
| 2026-05-04 04:17 | 47.44499 | 19.25662 | 471 ft | 0 kts | 73° |
| 2026-05-04 04:17 | 47.44499 | 19.25663 | 471 ft | 1 kts | 73° |
| 2026-05-04 04:17 | 47.44506 | 19.25726 | 480 ft | 16 kts | 87° |
| 2026-05-04 04:18 | 47.44402 | 19.25986 | 473 ft | 46 kts | 133° |
| 2026-05-04 04:18 | 47.44053 | 19.26554 | 468 ft | 104 kts | 132° |
| 2026-05-04 04:18 | 47.43447 | 19.27533 | 470 ft | 153 kts | 133° |
| 2026-05-04 04:18 | 47.42754 | 19.28677 | 1130 ft | 136 kts | 131° |
| 2026-05-04 04:19 | 47.42199 | 19.29687 | 1760 ft | 127 kts | 134° |
| 2026-05-04 04:19 | 47.41660 | 19.30874 | 1955 ft | 149 kts | 124° |
| 2026-05-04 04:19 | 47.41221 | 19.32321 | 2237 ft | 159 kts | 115° |
| 2026-05-04 04:19 | 47.40790 | 19.33882 | 2468 ft | 172 kts | 120° |
| 2026-05-04 04:20 | 47.40242 | 19.35537 | 2688 ft | 189 kts | 115° |
| 2026-05-04 04:20 | 47.40223 | 19.37555 | 2899 ft | 211 kts | 77° |
| 2026-05-04 04:20 | 47.40741 | 19.39678 | 3162 ft | 228 kts | 71° |
| 2026-05-04 04:20 | 47.41497 | 19.41841 | 3445 ft | 246 kts | 60° |
| 2026-05-04 04:21 | 47.42491 | 19.43997 | 3774 ft | 261 kts | 55° |
| 2026-05-04 04:21 | 47.43626 | 19.46141 | 4273 ft | 268 kts | 53° |
| 2026-05-04 04:21 | 47.44827 | 19.48273 | 4852 ft | 272 kts | 51° |
| 2026-05-04 04:21 | 47.46069 | 19.50415 | 5415 ft | 276 kts | 51° |
| 2026-05-04 04:22 | 47.47331 | 19.52558 | 5995 ft | 278 kts | 50° |
| 2026-05-04 04:22 | 47.48611 | 19.54716 | 6601 ft | 280 kts | 50° |
| 2026-05-04 04:22 | 47.49898 | 19.56878 | 7180 ft | 280 kts | 50° |
| 2026-05-04 04:22 | 47.51188 | 19.59044 | 7783 ft | 281 kts | 49° |
| 2026-05-04 04:23 | 47.52481 | 19.61214 | 8397 ft | 282 kts | 49° |
| 2026-05-04 04:23 | 47.53778 | 19.63391 | 9010 ft | 282 kts | 49° |
| 2026-05-04 04:23 | 47.55078 | 19.65574 | 9608 ft | 283 kts | 49° |
| 2026-05-04 04:23 | 47.56360 | 19.67799 | 10184 ft | 285 kts | 53° |
| 2026-05-04 04:24 | 47.57308 | 19.70410 | 10491 ft | 295 kts | 73° |
| 2026-05-04 04:24 | 47.57483 | 19.73485 | 10696 ft | 309 kts | 98° |
| 2026-05-04 04:24 | 47.56764 | 19.76480 | 10920 ft | 321 kts | 120° |
| 2026-05-04 04:24 | 47.55521 | 19.79302 | 11177 ft | 333 kts | 124° |
| 2026-05-04 04:25 | 47.54176 | 19.82174 | 11409 ft | 345 kts | 124° |
| 2026-05-04 04:25 | 47.52796 | 19.85142 | 11659 ft | 355 kts | 123° |
| 2026-05-04 04:25 | 47.51395 | 19.88180 | 12028 ft | 360 kts | 123° |
| 2026-05-04 04:25 | 47.49986 | 19.91247 | 12492 ft | 362 kts | 123° |
| 2026-05-04 04:26 | 47.48566 | 19.94344 | 12952 ft | 365 kts | 123° |
| 2026-05-04 04:26 | 47.47139 | 19.97457 | 13423 ft | 367 kts | 123° |
| 2026-05-04 04:26 | 47.45706 | 20.00582 | 13919 ft | 368 kts | 123° |
| 2026-05-04 04:26 | 47.44269 | 20.03715 | 14343 ft | 370 kts | 123° |
| 2026-05-04 04:27 | 47.42817 | 20.06878 | 14700 ft | 374 kts | 123° |
| 2026-05-04 04:27 | 47.41354 | 20.10062 | 15088 ft | 377 kts | 123° |
| 2026-05-04 04:27 | 47.39875 | 20.13275 | 15465 ft | 380 kts | 123° |
| 2026-05-04 04:27 | 47.38386 | 20.16510 | 15864 ft | 382 kts | 123° |
| 2026-05-04 04:28 | 47.36885 | 20.19763 | 16247 ft | 385 kts | 122° |
| 2026-05-04 04:28 | 47.35295 | 20.22968 | 16622 ft | 389 kts | 129° |
| 2026-05-04 04:28 | 47.33422 | 20.25879 | 17028 ft | 393 kts | 134° |
| 2026-05-04 04:28 | 47.31398 | 20.28623 | 17413 ft | 397 kts | 137° |
| 2026-05-04 04:29 | 47.29303 | 20.31283 | 17818 ft | 400 kts | 137° |
| 2026-05-04 04:29 | 47.27167 | 20.33937 | 18203 ft | 403 kts | 137° |
| 2026-05-04 04:29 | 47.25021 | 20.36611 | 18555 ft | 406 kts | 137° |
| 2026-05-04 04:29 | 47.22870 | 20.39316 | 18895 ft | 408 kts | 137° |
| 2026-05-04 04:30 | 47.20811 | 20.42190 | 19219 ft | 408 kts | 130° |
| 2026-05-04 04:30 | 47.19037 | 20.45440 | 19548 ft | 409 kts | 123° |
| 2026-05-04 04:30 | 47.17409 | 20.48884 | 19880 ft | 410 kts | 121° |
| 2026-05-04 04:30 | 47.15856 | 20.52408 | 20213 ft | 412 kts | 120° |
| 2026-05-04 04:31 | 47.14334 | 20.55984 | 20546 ft | 414 kts | 119° |
| 2026-05-04 04:31 | 47.12816 | 20.59588 | 20861 ft | 416 kts | 119° |
| 2026-05-04 04:31 | 47.11287 | 20.63211 | 21197 ft | 418 kts | 119° |
| 2026-05-04 04:31 | 47.09744 | 20.66843 | 21508 ft | 421 kts | 119° |
| 2026-05-04 04:32 | 47.08184 | 20.70490 | 21840 ft | 423 kts | 120° |
| 2026-05-04 04:32 | 47.06608 | 20.74150 | 22154 ft | 425 kts | 120° |
| 2026-05-04 04:32 | 47.05024 | 20.77817 | 22468 ft | 427 kts | 120° |
| 2026-05-04 04:32 | 47.03426 | 20.81508 | 22781 ft | 429 kts | 120° |
| 2026-05-04 04:33 | 47.01820 | 20.85208 | 23082 ft | 432 kts | 120° |
| 2026-05-04 04:33 | 47.00204 | 20.88928 | 23405 ft | 434 kts | 120° |
| 2026-05-04 04:33 | 46.98581 | 20.92660 | 23729 ft | 436 kts | 120° |
| 2026-05-04 04:33 | 46.96947 | 20.96411 | 24013 ft | 437 kts | 120° |
| 2026-05-04 04:34 | 46.95308 | 21.00171 | 24301 ft | 439 kts | 120° |
| 2026-05-04 04:34 | 46.93664 | 21.03938 | 24562 ft | 441 kts | 120° |
| 2026-05-04 04:34 | 46.92008 | 21.07726 | 24829 ft | 443 kts | 120° |
| 2026-05-04 04:34 | 46.90345 | 21.11527 | 25104 ft | 444 kts | 120° |
| 2026-05-04 04:35 | 46.88676 | 21.15334 | 25375 ft | 446 kts | 120° |
| 2026-05-04 04:35 | 46.86997 | 21.19160 | 25649 ft | 448 kts | 120° |
| 2026-05-04 04:35 | 46.85310 | 21.22999 | 25929 ft | 450 kts | 120° |
| 2026-05-04 04:35 | 46.83615 | 21.26850 | 26217 ft | 452 kts | 119° |
| 2026-05-04 04:36 | 46.81911 | 21.30718 | 26496 ft | 454 kts | 119° |
| 2026-05-04 04:36 | 46.80198 | 21.34597 | 26770 ft | 456 kts | 119° |
| 2026-05-04 04:36 | 46.78477 | 21.38492 | 27049 ft | 458 kts | 119° |
| 2026-05-04 04:36 | 46.76747 | 21.42403 | 27315 ft | 460 kts | 119° |
| 2026-05-04 04:37 | 46.71499 | 21.54227 | 28198 ft | 466 kts | 120° |
| 2026-05-04 04:37 | 46.69729 | 21.58203 | 28473 ft | 468 kts | 120° |
| 2026-05-04 04:38 | 46.67951 | 21.62192 | 28812 ft | 470 kts | 120° |
| 2026-05-04 04:38 | 46.66167 | 21.66187 | 29110 ft | 472 kts | 120° |
| 2026-05-04 04:38 | 46.64375 | 21.70197 | 29399 ft | 474 kts | 120° |
| 2026-05-04 04:38 | 46.62569 | 21.74231 | 29681 ft | 476 kts | 120° |
| 2026-05-04 04:39 | 46.60757 | 21.78272 | 29978 ft | 479 kts | 120° |
| 2026-05-04 04:39 | 46.58934 | 21.82333 | 30268 ft | 481 kts | 120° |
| 2026-05-04 04:39 | 46.57124 | 21.86358 | 30494 ft | 483 kts | 120° |
| 2026-05-04 04:39 | 46.55282 | 21.90448 | 30755 ft | 485 kts | 120° |
| 2026-05-04 04:40 | 46.53432 | 21.94550 | 31027 ft | 486 kts | 120° |
| 2026-05-04 04:40 | 46.51579 | 21.98652 | 31283 ft | 487 kts | 120° |
| 2026-05-04 04:40 | 46.49714 | 22.02777 | 31507 ft | 489 kts | 120° |
| 2026-05-04 04:40 | 46.47843 | 22.06908 | 31724 ft | 491 kts | 120° |
| 2026-05-04 04:41 | 46.45962 | 22.11054 | 31920 ft | 493 kts | 120° |
| 2026-05-04 04:41 | 46.44073 | 22.15211 | 32136 ft | 495 kts | 120° |
| 2026-05-04 04:41 | 46.42174 | 22.19386 | 32375 ft | 495 kts | 120° |
| 2026-05-04 04:41 | 46.40280 | 22.23540 | 32743 ft | 494 kts | 120° |
| 2026-05-04 04:42 | 46.38395 | 22.27667 | 33159 ft | 491 kts | 120° |
| 2026-05-04 04:42 | 46.36504 | 22.31802 | 33470 ft | 490 kts | 120° |
| 2026-05-04 04:42 | 46.34623 | 22.35910 | 33742 ft | 490 kts | 120° |
| 2026-05-04 04:42 | 46.32738 | 22.40021 | 34023 ft | 490 kts | 120° |
| 2026-05-04 04:43 | 46.30852 | 22.44129 | 34288 ft | 490 kts | 120° |
| 2026-05-04 04:43 | 46.28969 | 22.48226 | 34526 ft | 489 kts | 120° |
| 2026-05-04 04:43 | 46.27084 | 22.52322 | 34747 ft | 489 kts | 120° |
| 2026-05-04 04:43 | 46.25199 | 22.56410 | 35089 ft | 487 kts | 120° |
| 2026-05-04 04:44 | 46.23326 | 22.60464 | 35433 ft | 485 kts | 120° |
| 2026-05-04 04:44 | 46.21452 | 22.64516 | 35624 ft | 485 kts | 120° |
| 2026-05-04 04:44 | 46.19578 | 22.68565 | 35808 ft | 486 kts | 120° |
| 2026-05-04 04:44 | 46.17700 | 22.72617 | 36018 ft | 486 kts | 120° |
| 2026-05-04 04:45 | 46.15820 | 22.76666 | 36231 ft | 486 kts | 120° |
| 2026-05-04 04:45 | 46.13935 | 22.80721 | 36423 ft | 486 kts | 120° |
| 2026-05-04 04:45 | 46.12051 | 22.84766 | 36633 ft | 486 kts | 120° |
| 2026-05-04 04:47 | 46.00650 | 23.09128 | 37199 ft | 498 kts | 120° |
| 2026-05-04 04:47 | 45.96750 | 23.17410 | 37207 ft | 502 kts | 120° |
| 2026-05-04 04:48 | 45.93481 | 23.24332 | 37190 ft | 504 kts | 120° |
| 2026-05-04 04:49 | 45.85630 | 23.46538 | 37189 ft | 498 kts | 111° |
| 2026-05-04 04:49 | 45.82684 | 23.55520 | 37180 ft | 497 kts | 111° |
| 2026-05-04 04:50 | 45.79727 | 23.64465 | 37175 ft | 497 kts | 111° |
| 2026-05-04 04:50 | 45.76755 | 23.73395 | 37171 ft | 496 kts | 111° |
| 2026-05-04 04:51 | 45.73777 | 23.82314 | 37163 ft | 497 kts | 111° |
| 2026-05-04 04:51 | 45.70789 | 23.91224 | 37158 ft | 496 kts | 111° |
| 2026-05-04 04:52 | 45.67795 | 24.00127 | 37169 ft | 497 kts | 111° |
| 2026-05-04 04:52 | 45.64793 | 24.09022 | 37168 ft | 497 kts | 112° |
| 2026-05-04 04:53 | 45.61784 | 24.17905 | 37166 ft | 496 kts | 112° |
| 2026-05-04 04:53 | 45.58773 | 24.26771 | 37163 ft | 496 kts | 112° |
| 2026-05-04 04:54 | 45.55777 | 24.35563 | 37162 ft | 496 kts | 112° |
| 2026-05-04 04:54 | 45.52744 | 24.44428 | 37152 ft | 498 kts | 112° |
| 2026-05-04 04:55 | 45.49700 | 24.53300 | 37152 ft | 498 kts | 113° |
| 2026-05-04 04:55 | 45.46648 | 24.62168 | 37139 ft | 498 kts | 113° |
| 2026-05-04 04:56 | 45.43593 | 24.71011 | 37138 ft | 498 kts | 113° |
| 2026-05-04 04:56 | 45.40532 | 24.79843 | 37146 ft | 498 kts | 113° |
| 2026-05-04 04:57 | 45.37462 | 24.88672 | 37135 ft | 498 kts | 113° |
| 2026-05-04 04:57 | 45.34386 | 24.97488 | 37129 ft | 498 kts | 113° |
| 2026-05-04 04:58 | 45.31302 | 25.06298 | 37127 ft | 498 kts | 114° |
| 2026-05-04 04:58 | 45.28216 | 25.15088 | 37128 ft | 497 kts | 114° |
| 2026-05-04 04:59 | 45.25125 | 25.23862 | 37121 ft | 497 kts | 114° |
| 2026-05-04 04:59 | 45.22029 | 25.32621 | 37113 ft | 497 kts | 114° |
| 2026-05-04 05:00 | 45.18927 | 25.41371 | 37122 ft | 497 kts | 114° |
| 2026-05-04 05:01 | 45.14265 | 25.54467 | 37108 ft | 496 kts | 114° |
| 2026-05-04 05:01 | 45.11152 | 25.63172 | 37102 ft | 496 kts | 114° |
| 2026-05-04 05:02 | 45.08033 | 25.71871 | 37100 ft | 496 kts | 114° |
| 2026-05-04 05:02 | 45.04701 | 25.80413 | 37099 ft | 496 kts | 119° |
| 2026-05-04 05:03 | 45.01067 | 25.88681 | 37103 ft | 495 kts | 120° |
| 2026-05-04 05:04 | 44.93863 | 26.05239 | 37108 ft | 495 kts | 119° |
| 2026-05-04 05:04 | 44.90311 | 26.13526 | 37089 ft | 492 kts | 119° |
| 2026-05-04 05:06 | 44.76137 | 26.46358 | 37081 ft | 491 kts | 119° |
| 2026-05-04 05:07 | 44.72573 | 26.54550 | 37075 ft | 491 kts | 119° |
| 2026-05-04 05:07 | 44.69003 | 26.62732 | 37075 ft | 491 kts | 119° |
| 2026-05-04 05:09 | 44.52771 | 26.99641 | 37067 ft | 494 kts | 120° |
| 2026-05-04 05:10 | 44.49145 | 27.07823 | 37069 ft | 494 kts | 120° |
| 2026-05-04 05:10 | 44.45510 | 27.15998 | 37075 ft | 494 kts | 120° |
| 2026-05-04 05:11 | 44.41871 | 27.24162 | 37069 ft | 494 kts | 121° |
| 2026-05-04 05:11 | 44.38229 | 27.32310 | 37067 ft | 494 kts | 121° |
| 2026-05-04 05:12 | 44.34586 | 27.40435 | 37064 ft | 494 kts | 121° |
| 2026-05-04 05:12 | 44.30931 | 27.48564 | 37062 ft | 494 kts | 121° |
| 2026-05-04 05:13 | 44.27279 | 27.56666 | 37058 ft | 492 kts | 121° |
| 2026-05-04 05:13 | 44.23637 | 27.64719 | 37062 ft | 490 kts | 121° |
| 2026-05-04 05:14 | 44.19999 | 27.72743 | 37060 ft | 490 kts | 121° |
| 2026-05-04 05:14 | 44.16354 | 27.80762 | 37061 ft | 489 kts | 122° |
| 2026-05-04 05:15 | 44.12725 | 27.88722 | 37058 ft | 485 kts | 122° |
| 2026-05-04 05:15 | 44.09105 | 27.96641 | 37052 ft | 484 kts | 122° |
| 2026-05-04 05:16 | 44.05511 | 28.04480 | 37046 ft | 484 kts | 122° |
| 2026-05-04 05:16 | 44.01890 | 28.12357 | 37046 ft | 483 kts | 122° |
| 2026-05-04 05:17 | 43.98276 | 28.20199 | 37046 ft | 481 kts | 122° |
| 2026-05-04 05:17 | 43.94663 | 28.28016 | 37038 ft | 482 kts | 122° |
| 2026-05-04 05:18 | 43.91033 | 28.35850 | 37043 ft | 483 kts | 122° |
| 2026-05-04 05:18 | 43.87401 | 28.43669 | 37039 ft | 481 kts | 122° |
| 2026-05-04 05:19 | 43.83773 | 28.51455 | 37045 ft | 480 kts | 122° |
| 2026-05-04 05:19 | 43.80147 | 28.59217 | 37051 ft | 480 kts | 122° |
| 2026-05-04 05:20 | 43.76515 | 28.66971 | 37049 ft | 480 kts | 122° |
| 2026-05-04 05:20 | 43.72881 | 28.74710 | 37056 ft | 479 kts | 122° |
| 2026-05-04 05:21 | 43.69242 | 28.82431 | 37053 ft | 479 kts | 122° |
| 2026-05-04 05:21 | 43.65391 | 28.89947 | 37056 ft | 479 kts | 125° |
| 2026-05-04 05:22 | 43.61423 | 28.97344 | 37051 ft | 479 kts | 125° |
| 2026-05-04 05:22 | 43.57480 | 29.04750 | 37042 ft | 479 kts | 125° |
| 2026-05-04 05:23 | 43.53558 | 29.12178 | 37034 ft | 479 kts | 125° |
| 2026-05-04 05:23 | 43.49642 | 29.19604 | 37047 ft | 479 kts | 124° |
| 2026-05-04 05:24 | 43.45719 | 29.27026 | 37034 ft | 479 kts | 124° |
| 2026-05-04 05:24 | 43.41815 | 29.34387 | 37025 ft | 479 kts | 124° |
| 2026-05-04 05:25 | 43.37854 | 29.41838 | 37026 ft | 480 kts | 125° |
| 2026-05-04 05:25 | 43.33906 | 29.49243 | 37020 ft | 480 kts | 124° |
| 2026-05-04 05:26 | 43.29955 | 29.56636 | 37018 ft | 481 kts | 125° |
| 2026-05-04 05:26 | 43.26020 | 29.63980 | 37009 ft | 480 kts | 125° |
| 2026-05-04 05:28 | 43.10138 | 29.93441 | 37010 ft | 480 kts | 125° |
| 2026-05-04 05:29 | 43.06156 | 30.00782 | 36996 ft | 480 kts | 125° |
| 2026-05-04 05:29 | 43.02169 | 30.08114 | 36983 ft | 481 kts | 125° |
| 2026-05-04 05:31 | 42.86154 | 30.37383 | 36966 ft | 481 kts | 125° |
| 2026-05-04 05:32 | 42.82135 | 30.44682 | 36966 ft | 481 kts | 124° |
| 2026-05-04 05:33 | 42.76216 | 30.55690 | 36967 ft | 479 kts | 119° |
| 2026-05-04 05:33 | 42.73616 | 30.63953 | 37018 ft | 475 kts | 103° |
| 2026-05-04 05:34 | 42.72462 | 30.72823 | 36979 ft | 475 kts | 97° |
| 2026-05-04 05:34 | 42.71588 | 30.81745 | 36941 ft | 477 kts | 97° |
| 2026-05-04 05:35 | 42.70872 | 30.89172 | 36977 ft | 477 kts | 97° |
| 2026-05-04 05:35 | 42.69974 | 30.98106 | 36987 ft | 476 kts | 97° |
| 2026-05-04 05:36 | 42.69049 | 31.07031 | 36960 ft | 476 kts | 97° |
| 2026-05-04 05:36 | 42.68111 | 31.15970 | 36855 ft | 480 kts | 97° |
| 2026-05-04 05:37 | 42.67162 | 31.24940 | 36859 ft | 480 kts | 97° |
| 2026-05-04 05:37 | 42.66208 | 31.33905 | 36904 ft | 479 kts | 97° |
| 2026-05-04 05:38 | 42.64764 | 31.47347 | 36912 ft | 480 kts | 97° |
| 2026-05-04 05:38 | 42.63791 | 31.56320 | 36935 ft | 479 kts | 97° |
| 2026-05-04 05:39 | 42.63305 | 31.60779 | 37190 ft | 476 kts | 97° |
| 2026-05-04 05:39 | 42.62334 | 31.69625 | 37558 ft | 474 kts | 98° |
| 2026-05-04 05:40 | 42.60872 | 31.82847 | 37850 ft | 476 kts | 98° |
| 2026-05-04 05:40 | 42.59875 | 31.91784 | 37953 ft | 479 kts | 98° |
| 2026-05-04 05:41 | 42.59373 | 31.96251 | 38177 ft | 477 kts | 98° |
| 2026-05-04 05:41 | 42.58876 | 32.00656 | 38649 ft | 469 kts | 98° |
| 2026-05-04 05:41 | 42.58387 | 32.05022 | 38836 ft | 467 kts | 98° |
| 2026-05-04 05:41 | 42.57904 | 32.09386 | 38875 ft | 469 kts | 98° |
| 2026-05-04 05:42 | 42.56905 | 32.18186 | 38866 ft | 475 kts | 98° |
| 2026-05-04 05:42 | 42.55880 | 32.27080 | 38867 ft | 480 kts | 99° |
| 2026-05-04 05:43 | 42.54839 | 32.36058 | 38863 ft | 484 kts | 99° |
| 2026-05-04 05:45 | 42.50572 | 32.72306 | 38834 ft | 488 kts | 99° |
| 2026-05-04 05:47 | 42.46178 | 33.08600 | 38817 ft | 488 kts | 99° |
| 2026-05-04 05:47 | 42.45062 | 33.17670 | 38818 ft | 488 kts | 99° |
| 2026-05-04 05:48 | 42.43937 | 33.26737 | 38815 ft | 488 kts | 100° |
| 2026-05-04 05:48 | 42.42804 | 33.35794 | 38799 ft | 488 kts | 100° |
| 2026-05-04 05:49 | 42.41665 | 33.44855 | 38785 ft | 488 kts | 100° |
| 2026-05-04 05:49 | 42.40528 | 33.53840 | 38791 ft | 487 kts | 100° |
| 2026-05-04 05:51 | 42.35852 | 33.90193 | 38772 ft | 495 kts | 101° |
| 2026-05-04 05:52 | 42.34662 | 33.99362 | 38772 ft | 496 kts | 101° |
| 2026-05-04 05:52 | 42.33458 | 34.08545 | 38770 ft | 496 kts | 101° |
| 2026-05-04 05:54 | 42.28565 | 34.45277 | 38771 ft | 497 kts | 102° |
| 2026-05-04 05:55 | 42.27324 | 34.54437 | 38767 ft | 496 kts | 102° |
| 2026-05-04 05:55 | 42.26075 | 34.63585 | 38768 ft | 495 kts | 102° |
| 2026-05-04 05:56 | 42.24820 | 34.72731 | 38769 ft | 495 kts | 102° |
| 2026-05-04 05:56 | 42.23563 | 34.81846 | 38768 ft | 493 kts | 102° |
| 2026-05-04 05:57 | 42.22299 | 34.90934 | 38768 ft | 493 kts | 102° |
| 2026-05-04 05:57 | 42.21023 | 35.00025 | 38769 ft | 493 kts | 102° |
| 2026-05-04 05:58 | 42.19743 | 35.09101 | 38772 ft | 493 kts | 102° |
| 2026-05-04 05:58 | 42.18453 | 35.18193 | 38777 ft | 494 kts | 102° |
| 2026-05-04 05:59 | 42.17156 | 35.27290 | 38777 ft | 494 kts | 102° |
| 2026-05-04 05:59 | 42.15851 | 35.36382 | 38763 ft | 494 kts | 102° |
| 2026-05-04 06:00 | 42.14551 | 35.45415 | 38774 ft | 495 kts | 103° |
| 2026-05-04 06:00 | 42.13234 | 35.54514 | 38774 ft | 495 kts | 103° |
| 2026-05-04 06:01 | 42.11909 | 35.63599 | 38775 ft | 494 kts | 103° |
| 2026-05-04 06:03 | 42.06540 | 35.99930 | 38790 ft | 495 kts | 103° |
| 2026-05-04 06:05 | 42.00358 | 36.40768 | 38797 ft | 495 kts | 104° |
| 2026-05-04 06:06 | 41.98964 | 36.49837 | 38787 ft | 495 kts | 104° |
| 2026-05-04 06:06 | 41.97564 | 36.58891 | 38800 ft | 495 kts | 104° |
| 2026-05-04 06:07 | 41.96157 | 36.67946 | 38799 ft | 495 kts | 104° |
| 2026-05-04 06:07 | 41.94742 | 36.76998 | 38799 ft | 495 kts | 104° |
| 2026-05-04 06:08 | 41.93322 | 36.86040 | 38796 ft | 495 kts | 105° |
| 2026-05-04 06:08 | 41.91894 | 36.95074 | 38802 ft | 494 kts | 105° |
| 2026-05-04 06:09 | 41.90595 | 37.04086 | 38799 ft | 497 kts | 99° |
| 2026-05-04 06:11 | 41.89846 | 37.41275 | 38806 ft | 498 kts | 95° |
| 2026-05-04 06:13 | 41.89171 | 37.78508 | 38808 ft | 500 kts | 95° |
| 2026-05-04 06:14 | 41.88479 | 38.11214 | 38819 ft | 502 kts | 95° |
| 2026-05-04 06:15 | 41.88264 | 38.20583 | 38816 ft | 502 kts | 95° |
| 2026-05-04 06:15 | 41.88041 | 38.29956 | 38817 ft | 502 kts | 95° |
| 2026-05-04 06:16 | 41.87810 | 38.39328 | 38820 ft | 503 kts | 95° |
| 2026-05-04 06:16 | 41.87572 | 38.48701 | 38821 ft | 502 kts | 96° |
| 2026-05-04 06:17 | 41.87326 | 38.58064 | 38819 ft | 502 kts | 96° |
| 2026-05-04 06:17 | 41.87073 | 38.67420 | 38826 ft | 502 kts | 96° |
| 2026-05-04 06:18 | 41.86812 | 38.76780 | 38823 ft | 502 kts | 96° |
| 2026-05-04 06:20 | 41.85690 | 39.14278 | 38823 ft | 505 kts | 96° |
| 2026-05-04 06:21 | 41.84976 | 39.36236 | 38818 ft | 507 kts | 96° |
| 2026-05-04 06:22 | 41.84655 | 39.45701 | 38817 ft | 509 kts | 96° |
| 2026-05-04 06:25 | 41.82177 | 40.12522 | 38800 ft | 515 kts | 97° |
| 2026-05-04 06:26 | 41.81794 | 40.22124 | 38810 ft | 516 kts | 97° |
| 2026-05-04 06:26 | 41.81392 | 40.31735 | 38806 ft | 517 kts | 97° |
| 2026-05-04 06:27 | 41.80361 | 40.55736 | 38808 ft | 517 kts | 97° |
| 2026-05-04 06:28 | 41.79935 | 40.65356 | 38803 ft | 517 kts | 97° |
| 2026-05-04 06:28 | 41.79489 | 40.74972 | 38803 ft | 517 kts | 97° |
| 2026-05-04 06:29 | 41.79009 | 40.84582 | 38796 ft | 516 kts | 97° |
| 2026-05-04 06:29 | 41.78524 | 40.94164 | 38784 ft | 515 kts | 97° |
| 2026-05-04 06:30 | 41.78036 | 41.03751 | 38806 ft | 516 kts | 97° |
| 2026-05-04 06:30 | 41.77540 | 41.13355 | 38803 ft | 517 kts | 97° |
| 2026-05-04 06:31 | 41.77037 | 41.22967 | 38794 ft | 517 kts | 97° |
| 2026-05-04 06:31 | 41.76527 | 41.32574 | 38803 ft | 517 kts | 97° |
| 2026-05-04 06:33 | 41.74400 | 41.71009 | 38795 ft | 517 kts | 98° |
| 2026-05-04 06:34 | 41.73849 | 41.80612 | 38775 ft | 518 kts | 98° |
| 2026-05-04 06:34 | 41.73285 | 41.90258 | 38767 ft | 520 kts | 98° |
| 2026-05-04 06:36 | 41.70943 | 42.29008 | 38714 ft | 526 kts | 98° |
| 2026-05-04 06:37 | 41.70330 | 42.38776 | 38716 ft | 528 kts | 98° |
| 2026-05-04 06:37 | 41.69707 | 42.48572 | 38719 ft | 528 kts | 98° |
| 2026-05-04 06:38 | 41.69077 | 42.58369 | 38691 ft | 528 kts | 98° |
| 2026-05-04 06:40 | 41.66479 | 42.97464 | 38727 ft | 529 kts | 99° |
| 2026-05-04 06:40 | 41.65802 | 43.07248 | 38722 ft | 529 kts | 99° |
| 2026-05-04 06:41 | 41.65115 | 43.17046 | 38715 ft | 529 kts | 99° |
| 2026-05-04 06:41 | 41.64425 | 43.26822 | 38749 ft | 528 kts | 99° |
| 2026-05-04 06:42 | 41.63729 | 43.36579 | 38752 ft | 527 kts | 99° |
| 2026-05-04 06:44 | 41.60859 | 43.75652 | 38835 ft | 529 kts | 100° |
| 2026-05-04 06:44 | 41.60121 | 43.85441 | 38835 ft | 530 kts | 100° |
| 2026-05-04 06:45 | 41.59373 | 43.95247 | 38874 ft | 531 kts | 100° |
| 2026-05-04 06:45 | 41.58621 | 44.04995 | 38884 ft | 531 kts | 101° |
| 2026-05-04 06:46 | 41.57857 | 44.14801 | 38910 ft | 531 kts | 101° |
| 2026-05-04 06:46 | 41.56737 | 44.24498 | 38924 ft | 524 kts | 111° |
| 2026-05-04 06:48 | 41.47732 | 44.61312 | 38956 ft | 522 kts | 114° |
| 2026-05-04 06:50 | 41.38495 | 44.97989 | 38962 ft | 523 kts | 114° |
| 2026-05-04 06:51 | 41.36162 | 45.07158 | 38942 ft | 523 kts | 114° |
| 2026-05-04 06:51 | 41.33821 | 45.16331 | 38943 ft | 523 kts | 114° |
| 2026-05-04 06:52 | 41.31471 | 45.25492 | 38949 ft | 523 kts | 114° |
| 2026-05-04 06:52 | 41.29114 | 45.34641 | 38950 ft | 523 kts | 114° |
| 2026-05-04 06:53 | 41.26750 | 45.43788 | 38948 ft | 523 kts | 114° |
| 2026-05-04 06:53 | 41.24380 | 45.52921 | 38940 ft | 523 kts | 114° |
| 2026-05-04 06:54 | 41.22001 | 45.62055 | 38946 ft | 524 kts | 114° |
| 2026-05-04 06:54 | 41.19613 | 45.71189 | 38949 ft | 524 kts | 114° |
| 2026-05-04 06:55 | 41.17208 | 45.80317 | 38954 ft | 524 kts | 114° |
| 2026-05-04 06:55 | 41.14792 | 45.89445 | 38955 ft | 525 kts | 114° |
| 2026-05-04 06:57 | 41.05041 | 46.25984 | 38966 ft | 527 kts | 114° |
| 2026-05-04 06:58 | 41.02588 | 46.35134 | 38957 ft | 527 kts | 114° |
| 2026-05-04 06:58 | 41.00143 | 46.44290 | 38959 ft | 528 kts | 114° |
| 2026-05-04 06:59 | 40.97690 | 46.53445 | 38963 ft | 528 kts | 114° |
| 2026-05-04 06:59 | 40.95226 | 46.62597 | 38964 ft | 528 kts | 114° |
| 2026-05-04 07:01 | 40.92380 | 46.96053 | 38958 ft | 548 kts | 78° |
| 2026-05-04 07:01 | 40.93286 | 47.00949 | 38950 ft | 547 kts | 77° |
| 2026-05-04 07:02 | 40.95138 | 47.10575 | 38953 ft | 535 kts | 77° |
| 2026-05-04 07:02 | 40.96937 | 47.20101 | 38948 ft | 533 kts | 78° |
| 2026-05-04 07:03 | 40.98688 | 47.29626 | 38931 ft | 533 kts | 78° |
| 2026-05-04 07:03 | 41.00417 | 47.39150 | 38936 ft | 531 kts | 78° |
| 2026-05-04 07:04 | 41.02134 | 47.48651 | 38935 ft | 531 kts | 78° |
| 2026-05-04 07:04 | 41.03845 | 47.58164 | 38931 ft | 531 kts | 78° |
| 2026-05-04 07:05 | 41.05549 | 47.67683 | 38911 ft | 531 kts | 77° |
| 2026-05-04 07:05 | 41.07215 | 47.77034 | 38918 ft | 520 kts | 77° |
| 2026-05-04 07:06 | 41.09686 | 47.90949 | 38889 ft | 516 kts | 77° |
| 2026-05-04 07:07 | 41.11590 | 48.00191 | 38874 ft | 517 kts | 71° |
| 2026-05-04 07:09 | 41.21583 | 48.36403 | 38848 ft | 521 kts | 71° |
| 2026-05-04 07:09 | 41.24072 | 48.45450 | 38854 ft | 523 kts | 71° |
| 2026-05-04 07:10 | 41.26156 | 48.53063 | 38854 ft | 523 kts | 71° |
| 2026-05-04 07:12 | 41.36050 | 48.89492 | 38891 ft | 525 kts | 71° |
| 2026-05-04 07:12 | 41.38510 | 48.98646 | 38903 ft | 526 kts | 71° |
| 2026-05-04 07:13 | 41.40975 | 49.07840 | 38908 ft | 527 kts | 71° |
| 2026-05-04 07:13 | 41.43431 | 49.17036 | 38913 ft | 527 kts | 71° |
| 2026-05-04 07:14 | 41.49544 | 49.40078 | 38914 ft | 527 kts | 72° |
| 2026-05-04 07:15 | 41.51974 | 49.49301 | 38914 ft | 527 kts | 72° |
| 2026-05-04 07:15 | 41.54398 | 49.58532 | 38919 ft | 527 kts | 72° |
| 2026-05-04 07:16 | 41.56812 | 49.67763 | 38924 ft | 527 kts | 72° |
| 2026-05-04 07:16 | 41.59219 | 49.77004 | 38928 ft | 527 kts | 72° |
| 2026-05-04 07:17 | 41.61618 | 49.86250 | 38921 ft | 527 kts | 72° |
| 2026-05-04 07:17 | 41.64009 | 49.95495 | 38927 ft | 527 kts | 72° |
| 2026-05-04 07:18 | 41.66394 | 50.04756 | 38930 ft | 527 kts | 72° |
| 2026-05-04 07:18 | 41.68771 | 50.14025 | 38938 ft | 527 kts | 72° |
| 2026-05-04 07:19 | 41.71138 | 50.23286 | 38933 ft | 526 kts | 72° |
| 2026-05-04 07:19 | 41.73495 | 50.32546 | 38932 ft | 525 kts | 72° |
| 2026-05-04 07:20 | 41.75830 | 50.41753 | 38937 ft | 525 kts | 72° |
| 2026-05-04 07:20 | 41.78185 | 50.51076 | 38943 ft | 524 kts | 72° |
| 2026-05-04 07:22 | 41.87428 | 50.88030 | 38948 ft | 522 kts | 72° |
| 2026-05-04 07:23 | 41.89717 | 50.97272 | 38943 ft | 522 kts | 72° |
| 2026-05-04 07:23 | 41.91997 | 51.06512 | 38940 ft | 522 kts | 72° |
| 2026-05-04 07:24 | 41.94272 | 51.15773 | 38951 ft | 523 kts | 72° |
| 2026-05-04 07:24 | 41.96544 | 51.25054 | 38953 ft | 523 kts | 72° |
| 2026-05-04 07:26 | 42.08558 | 51.60484 | 38936 ft | 525 kts | 56° |
| 2026-05-04 07:27 | 42.12569 | 51.68693 | 38949 ft | 524 kts | 56° |
| 2026-05-04 07:27 | 42.16561 | 51.76911 | 38950 ft | 524 kts | 56° |
| 2026-05-04 07:28 | 42.20503 | 51.85091 | 38947 ft | 524 kts | 57° |
| 2026-05-04 07:28 | 42.24459 | 51.93341 | 38943 ft | 523 kts | 57° |
| 2026-05-04 07:29 | 42.28402 | 52.01587 | 38947 ft | 523 kts | 57° |
| 2026-05-04 07:29 | 42.32338 | 52.09838 | 38939 ft | 522 kts | 57° |
| 2026-05-04 07:30 | 42.36266 | 52.18095 | 38936 ft | 522 kts | 57° |
| 2026-05-04 07:30 | 42.40187 | 52.26361 | 38936 ft | 522 kts | 57° |
| 2026-05-04 07:31 | 42.44104 | 52.34639 | 38939 ft | 522 kts | 57° |
| 2026-05-04 07:33 | 42.59654 | 52.67737 | 38941 ft | 519 kts | 57° |
| 2026-05-04 07:33 | 42.63519 | 52.76019 | 38938 ft | 519 kts | 57° |
| 2026-05-04 07:34 | 42.67378 | 52.84312 | 38935 ft | 519 kts | 57° |
| 2026-05-04 07:34 | 42.71228 | 52.92610 | 38930 ft | 519 kts | 57° |
| 2026-05-04 07:35 | 42.75068 | 53.00911 | 38922 ft | 518 kts | 57° |
| 2026-05-04 07:35 | 42.78899 | 53.09213 | 38930 ft | 517 kts | 57° |
| 2026-05-04 07:36 | 42.82719 | 53.17513 | 38927 ft | 518 kts | 57° |
| 2026-05-04 07:38 | 42.97946 | 53.50842 | 38926 ft | 518 kts | 58° |
| 2026-05-04 07:38 | 43.01037 | 53.59710 | 38921 ft | 518 kts | 74° |
| 2026-05-04 07:39 | 43.02258 | 53.69362 | 38920 ft | 516 kts | 85° |
| 2026-05-04 07:39 | 43.02943 | 53.79140 | 38924 ft | 517 kts | 86° |
| 2026-05-04 07:40 | 43.03543 | 53.88855 | 38929 ft | 517 kts | 86° |
| 2026-05-04 07:40 | 43.04164 | 53.98642 | 38931 ft | 517 kts | 86° |
| 2026-05-04 07:41 | 43.04799 | 54.08415 | 38923 ft | 517 kts | 86° |
| 2026-05-04 07:41 | 43.05433 | 54.18200 | 38931 ft | 516 kts | 86° |
| 2026-05-04 07:42 | 43.06059 | 54.27995 | 38930 ft | 518 kts | 86° |
| 2026-05-04 07:42 | 43.06677 | 54.37811 | 38930 ft | 518 kts | 86° |
| 2026-05-04 07:43 | 43.07286 | 54.47625 | 38930 ft | 518 kts | 86° |
| 2026-05-04 07:43 | 43.07886 | 54.57444 | 38935 ft | 518 kts | 86° |
| 2026-05-04 07:44 | 43.08478 | 54.67271 | 38942 ft | 519 kts | 86° |
| 2026-05-04 07:44 | 43.09064 | 54.77122 | 38942 ft | 519 kts | 86° |
| 2026-05-04 07:45 | 43.09641 | 54.86974 | 38947 ft | 520 kts | 86° |
| 2026-05-04 07:45 | 43.10209 | 54.96828 | 38946 ft | 520 kts | 86° |
| 2026-05-04 07:46 | 43.10770 | 55.06703 | 38952 ft | 521 kts | 86° |
| 2026-05-04 07:46 | 43.11323 | 55.16593 | 38961 ft | 521 kts | 86° |
| 2026-05-04 07:47 | 43.11868 | 55.26485 | 38960 ft | 521 kts | 86° |
| 2026-05-04 07:49 | 43.13960 | 55.66044 | 38965 ft | 521 kts | 86° |
| 2026-05-04 07:49 | 43.14462 | 55.75937 | 38964 ft | 521 kts | 87° |
| 2026-05-04 07:50 | 43.14955 | 55.85841 | 38969 ft | 522 kts | 86° |
| 2026-05-04 07:50 | 43.15446 | 55.95774 | 38973 ft | 523 kts | 86° |
| 2026-05-04 07:51 | 43.16833 | 56.05537 | 38967 ft | 523 kts | 75° |
| 2026-05-04 07:51 | 43.18793 | 56.15128 | 38973 ft | 523 kts | 73° |
| 2026-05-04 07:52 | 43.20837 | 56.24711 | 38976 ft | 524 kts | 73° |
| 2026-05-04 07:52 | 43.22871 | 56.34313 | 38981 ft | 525 kts | 73° |
| 2026-05-04 07:54 | 43.30860 | 56.72900 | 38977 ft | 527 kts | 73° |
| 2026-05-04 07:55 | 43.32508 | 56.80957 | 38987 ft | 527 kts | 73° |
| 2026-05-04 07:55 | 43.34481 | 56.90649 | 38988 ft | 528 kts | 73° |
| 2026-05-04 07:56 | 43.36451 | 57.00368 | 38991 ft | 528 kts | 73° |
| 2026-05-04 07:56 | 43.38412 | 57.10086 | 38990 ft | 528 kts | 74° |
| 2026-05-04 07:57 | 43.40364 | 57.19814 | 38991 ft | 528 kts | 74° |
| 2026-05-04 07:57 | 43.42309 | 57.29553 | 38988 ft | 528 kts | 74° |
| 2026-05-04 07:58 | 43.44245 | 57.39289 | 38999 ft | 528 kts | 74° |
| 2026-05-04 07:58 | 43.46173 | 57.49039 | 39001 ft | 528 kts | 74° |
| 2026-05-04 07:59 | 43.48092 | 57.58788 | 39007 ft | 527 kts | 74° |
| 2026-05-04 07:59 | 43.50002 | 57.68543 | 39006 ft | 527 kts | 74° |
| 2026-05-04 08:00 | 43.51904 | 57.78300 | 39014 ft | 527 kts | 74° |
| 2026-05-04 08:02 | 43.59402 | 58.17264 | 39020 ft | 526 kts | 75° |
| 2026-05-04 08:02 | 43.61257 | 58.27025 | 39021 ft | 525 kts | 75° |
| 2026-05-04 08:03 | 43.63100 | 58.36770 | 39023 ft | 524 kts | 75° |
| 2026-05-04 08:03 | 43.64909 | 58.46516 | 39021 ft | 525 kts | 75° |
| 2026-05-04 08:04 | 43.66693 | 58.56292 | 39029 ft | 525 kts | 75° |
| 2026-05-04 08:04 | 43.68470 | 58.66063 | 39027 ft | 524 kts | 75° |
| 2026-05-04 08:05 | 43.70240 | 58.75823 | 39028 ft | 523 kts | 75° |
| 2026-05-04 08:05 | 43.72001 | 58.85578 | 39034 ft | 523 kts | 75° |
| 2026-05-04 08:06 | 43.73757 | 58.95354 | 39034 ft | 523 kts | 75° |
| 2026-05-04 08:06 | 43.75503 | 59.05119 | 39035 ft | 523 kts | 75° |
| 2026-05-04 08:08 | 43.82600 | 59.44139 | 39040 ft | 521 kts | 75° |
| 2026-05-04 08:11 | 43.90329 | 59.87976 | 39048 ft | 520 kts | 76° |
| 2026-05-04 08:11 | 43.92820 | 60.02615 | 39051 ft | 519 kts | 76° |
| 2026-05-04 08:12 | 43.94463 | 60.12300 | 39053 ft | 519 kts | 76° |
| 2026-05-04 08:12 | 43.96110 | 60.22049 | 39046 ft | 519 kts | 76° |
| 2026-05-04 08:13 | 43.97747 | 60.31801 | 39056 ft | 519 kts | 76° |
| 2026-05-04 08:13 | 43.99374 | 60.41548 | 39050 ft | 517 kts | 76° |
| 2026-05-04 08:14 | 44.00990 | 60.51278 | 39054 ft | 517 kts | 76° |
| 2026-05-04 08:16 | 44.07357 | 60.90182 | 39056 ft | 514 kts | 77° |
| 2026-05-04 08:16 | 44.08922 | 60.99886 | 39052 ft | 514 kts | 77° |
| 2026-05-04 08:17 | 44.10480 | 61.09596 | 39057 ft | 514 kts | 77° |
| 2026-05-04 08:17 | 44.12029 | 61.19311 | 39056 ft | 514 kts | 77° |
| 2026-05-04 08:19 | 44.15305 | 61.58659 | 39053 ft | 513 kts | 86° |
| 2026-05-04 08:20 | 44.15715 | 61.68567 | 39055 ft | 513 kts | 86° |
| 2026-05-04 08:20 | 44.16127 | 61.78474 | 39061 ft | 512 kts | 86° |
| 2026-05-04 08:21 | 44.16534 | 61.88366 | 39058 ft | 511 kts | 86° |
| 2026-05-04 08:21 | 44.16932 | 61.98235 | 39057 ft | 510 kts | 86° |
| 2026-05-04 08:22 | 44.17322 | 62.08105 | 39059 ft | 510 kts | 86° |
| 2026-05-04 08:24 | 44.18772 | 62.47490 | 39062 ft | 509 kts | 87° |
| 2026-05-04 08:24 | 44.19099 | 62.57350 | 39061 ft | 509 kts | 87° |
| 2026-05-04 08:25 | 44.19421 | 62.67204 | 39059 ft | 509 kts | 87° |
| 2026-05-04 08:25 | 44.19735 | 62.77054 | 39064 ft | 509 kts | 87° |
| 2026-05-04 08:27 | 44.20907 | 63.16395 | 39059 ft | 507 kts | 87° |
| 2026-05-04 08:28 | 44.21107 | 63.26212 | 39059 ft | 507 kts | 89° |
| 2026-05-04 08:28 | 44.21201 | 63.36029 | 39053 ft | 507 kts | 89° |
| 2026-05-04 08:29 | 44.21290 | 63.45847 | 39054 ft | 506 kts | 89° |
| 2026-05-04 08:31 | 44.21661 | 63.85097 | 39046 ft | 506 kts | 89° |
| 2026-05-04 08:33 | 44.22028 | 64.24294 | 39042 ft | 505 kts | 85° |
| 2026-05-04 08:35 | 44.23947 | 64.63273 | 39043 ft | 504 kts | 85° |
| 2026-05-04 08:35 | 44.24355 | 64.72965 | 39039 ft | 504 kts | 85° |
| 2026-05-04 08:37 | 44.25672 | 65.07120 | 39036 ft | 504 kts | 86° |
| 2026-05-04 08:38 | 44.26018 | 65.16867 | 39033 ft | 503 kts | 86° |
| 2026-05-04 08:38 | 44.26359 | 65.26613 | 39031 ft | 503 kts | 86° |
| 2026-05-04 08:40 | 44.27638 | 65.65538 | 39022 ft | 501 kts | 86° |
| 2026-05-04 08:41 | 44.27937 | 65.75253 | 39024 ft | 501 kts | 86° |
| 2026-05-04 08:41 | 44.28227 | 65.84962 | 39031 ft | 501 kts | 86° |
| 2026-05-04 08:42 | 44.28508 | 65.94667 | 39027 ft | 501 kts | 86° |
| 2026-05-04 08:42 | 44.28782 | 66.04384 | 39026 ft | 501 kts | 86° |
| 2026-05-04 08:43 | 44.29048 | 66.14101 | 39027 ft | 501 kts | 86° |
| 2026-05-04 08:43 | 44.29305 | 66.23815 | 39037 ft | 501 kts | 86° |
| 2026-05-04 08:44 | 44.29513 | 66.31887 | 39026 ft | 501 kts | 86° |
| 2026-05-04 08:46 | 44.30011 | 66.70802 | 39036 ft | 502 kts | 88° |
| 2026-05-04 08:46 | 44.30062 | 66.80547 | 39029 ft | 502 kts | 88° |
| 2026-05-04 08:47 | 44.30115 | 66.90291 | 39036 ft | 502 kts | 88° |
| 2026-05-04 08:47 | 44.30161 | 67.00030 | 39032 ft | 502 kts | 88° |
| 2026-05-04 08:48 | 44.30197 | 67.09772 | 39038 ft | 502 kts | 88° |
| 2026-05-04 08:48 | 44.30224 | 67.19507 | 39029 ft | 502 kts | 88° |
| 2026-05-04 08:49 | 44.30243 | 67.29238 | 39033 ft | 502 kts | 88° |
| 2026-05-04 08:50 | 44.30612 | 67.63147 | 39053 ft | 497 kts | 83° |
| 2026-05-04 08:51 | 44.31252 | 67.72746 | 39051 ft | 497 kts | 83° |
| 2026-05-04 08:51 | 44.31846 | 67.82357 | 39059 ft | 497 kts | 83° |
| 2026-05-04 08:52 | 44.32368 | 67.91972 | 39054 ft | 497 kts | 84° |
| 2026-05-04 08:52 | 44.32859 | 68.01593 | 39057 ft | 496 kts | 84° |
| 2026-05-04 08:54 | 44.34745 | 68.40079 | 39065 ft | 496 kts | 84° |
| 2026-05-04 08:55 | 44.35198 | 68.49705 | 39059 ft | 496 kts | 84° |
| 2026-05-04 08:55 | 44.35643 | 68.59332 | 39062 ft | 497 kts | 84° |
| 2026-05-04 09:01 | 44.33599 | 69.60172 | 39054 ft | 495 kts | 93° |
| 2026-05-04 09:01 | 44.33085 | 69.69752 | 39044 ft | 494 kts | 94° |
| 2026-05-04 09:02 | 44.32562 | 69.79329 | 39052 ft | 494 kts | 94° |
| 2026-05-04 09:02 | 44.32032 | 69.88895 | 39050 ft | 494 kts | 94° |
| 2026-05-04 09:03 | 44.31494 | 69.98466 | 39049 ft | 495 kts | 94° |
| 2026-05-04 09:03 | 44.30948 | 70.08041 | 39046 ft | 495 kts | 94° |
| 2026-05-04 09:04 | 44.30393 | 70.17610 | 39050 ft | 495 kts | 94° |
| 2026-05-04 09:04 | 44.29830 | 70.27184 | 39058 ft | 495 kts | 94° |
| 2026-05-04 09:05 | 44.29263 | 70.36763 | 39291 ft | 496 kts | 94° |
| 2026-05-04 09:05 | 44.28972 | 70.41554 | 39431 ft | 496 kts | 94° |
| 2026-05-04 09:05 | 44.28677 | 70.46350 | 39579 ft | 496 kts | 94° |
| 2026-05-04 09:05 | 44.28377 | 70.51152 | 39694 ft | 497 kts | 94° |
| 2026-05-04 09:06 | 44.28077 | 70.55949 | 39815 ft | 497 kts | 94° |
| 2026-05-04 09:07 | 44.25924 | 70.89585 | 40610 ft | 499 kts | 95° |
| 2026-05-04 09:08 | 44.25608 | 70.94401 | 40714 ft | 500 kts | 95° |
| 2026-05-04 09:08 | 44.25289 | 70.99229 | 40819 ft | 500 kts | 95° |
| 2026-05-04 09:08 | 44.24968 | 71.04059 | 40927 ft | 500 kts | 95° |
| 2026-05-04 09:09 | 44.24319 | 71.13736 | 41039 ft | 502 kts | 95° |
| 2026-05-04 09:09 | 44.23661 | 71.23413 | 41035 ft | 501 kts | 95° |
| 2026-05-04 09:10 | 44.22994 | 71.33096 | 41043 ft | 501 kts | 95° |
| 2026-05-04 09:10 | 44.22324 | 71.42768 | 41049 ft | 501 kts | 95° |
| 2026-05-04 09:11 | 44.21674 | 71.52448 | 41039 ft | 502 kts | 95° |
| 2026-05-04 09:11 | 44.21020 | 71.62130 | 41044 ft | 502 kts | 95° |
| 2026-05-04 09:12 | 44.20355 | 71.71814 | 41056 ft | 502 kts | 95° |
| 2026-05-04 09:14 | 44.17604 | 72.10526 | 41072 ft | 502 kts | 96° |
| 2026-05-04 09:14 | 44.16895 | 72.20204 | 41086 ft | 502 kts | 96° |
| 2026-05-04 09:15 | 44.16179 | 72.29873 | 41079 ft | 502 kts | 96° |
| 2026-05-04 09:15 | 44.15454 | 72.39551 | 41081 ft | 503 kts | 96° |
| 2026-05-04 09:17 | 44.12087 | 72.83109 | 41079 ft | 504 kts | 96° |
| 2026-05-04 09:18 | 44.11315 | 72.92794 | 41085 ft | 504 kts | 97° |
| 2026-05-04 09:18 | 44.10537 | 73.02484 | 41075 ft | 504 kts | 97° |
| 2026-05-04 09:19 | 44.09738 | 73.12156 | 41086 ft | 503 kts | 97° |
| 2026-05-04 09:19 | 44.08932 | 73.21766 | 41073 ft | 504 kts | 97° |
| 2026-05-04 09:20 | 44.08116 | 73.31436 | 41071 ft | 504 kts | 97° |
| 2026-05-04 09:20 | 44.07293 | 73.41105 | 41079 ft | 504 kts | 97° |
| 2026-05-04 09:21 | 44.06462 | 73.50782 | 41067 ft | 504 kts | 97° |
| 2026-05-04 09:21 | 44.05623 | 73.60449 | 41063 ft | 504 kts | 97° |
| 2026-05-04 09:22 | 44.04774 | 73.70135 | 41069 ft | 505 kts | 98° |
| 2026-05-04 09:22 | 44.03917 | 73.79817 | 41069 ft | 505 kts | 98° |
| 2026-05-04 09:23 | 44.03052 | 73.89487 | 41071 ft | 505 kts | 98° |
| 2026-05-04 09:23 | 44.02179 | 73.99166 | 41068 ft | 505 kts | 98° |
| 2026-05-04 09:25 | 43.98597 | 74.37907 | 41082 ft | 506 kts | 98° |
| 2026-05-04 09:26 | 43.97679 | 74.47610 | 41084 ft | 507 kts | 98° |
| 2026-05-04 09:26 | 43.96778 | 74.57326 | 41086 ft | 507 kts | 98° |
| 2026-05-04 09:27 | 43.95942 | 74.67046 | 41090 ft | 507 kts | 98° |
| 2026-05-04 09:27 | 43.95103 | 74.76758 | 41082 ft | 507 kts | 98° |
| 2026-05-04 09:28 | 43.94250 | 74.86410 | 41076 ft | 507 kts | 98° |
| 2026-05-04 09:28 | 43.93379 | 74.96109 | 41085 ft | 507 kts | 98° |
| 2026-05-04 09:29 | 43.92497 | 75.05815 | 41085 ft | 507 kts | 98° |
| 2026-05-04 09:29 | 43.91607 | 75.15528 | 41079 ft | 508 kts | 98° |
| 2026-05-04 09:30 | 43.90708 | 75.25249 | 41088 ft | 509 kts | 98° |
| 2026-05-04 09:30 | 43.89801 | 75.34969 | 41083 ft | 509 kts | 98° |
| 2026-05-04 09:31 | 43.88884 | 75.44692 | 41073 ft | 509 kts | 98° |
| 2026-05-04 09:31 | 43.87959 | 75.54426 | 41072 ft | 510 kts | 99° |
| 2026-05-04 09:32 | 43.87177 | 75.62578 | 41077 ft | 509 kts | 99° |
| 2026-05-04 09:34 | 43.83368 | 76.01423 | 41051 ft | 510 kts | 99° |
| 2026-05-04 09:34 | 43.82285 | 76.11132 | 41050 ft | 510 kts | 101° |
| 2026-05-04 09:35 | 43.81104 | 76.20803 | 41048 ft | 510 kts | 101° |
| 2026-05-04 09:35 | 43.79927 | 76.30488 | 41036 ft | 510 kts | 101° |
| 2026-05-04 09:37 | 43.75238 | 76.69210 | 41026 ft | 510 kts | 102° |
| 2026-05-04 09:38 | 43.74052 | 76.78831 | 41027 ft | 511 kts | 102° |
| 2026-05-04 09:38 | 43.72852 | 76.88503 | 41015 ft | 511 kts | 102° |
| 2026-05-04 09:39 | 43.71641 | 76.98191 | 41010 ft | 511 kts | 102° |
| 2026-05-04 09:39 | 43.70423 | 77.07868 | 41022 ft | 511 kts | 102° |
| 2026-05-04 09:40 | 43.69195 | 77.17551 | 41010 ft | 511 kts | 102° |
| 2026-05-04 09:40 | 43.67956 | 77.27220 | 41010 ft | 511 kts | 102° |
| 2026-05-04 09:42 | 43.62904 | 77.65915 | 41028 ft | 512 kts | 103° |
| 2026-05-04 09:43 | 43.61620 | 77.75579 | 41020 ft | 512 kts | 103° |
| 2026-05-04 09:43 | 43.60328 | 77.85247 | 41015 ft | 512 kts | 103° |
| 2026-05-04 09:44 | 43.59028 | 77.94899 | 41015 ft | 512 kts | 103° |
| 2026-05-04 09:46 | 43.56958 | 78.34029 | 40993 ft | 514 kts | 93° |
| 2026-05-04 09:46 | 43.56785 | 78.43885 | 40979 ft | 514 kts | 94° |
| 2026-05-04 09:47 | 43.56592 | 78.53742 | 40995 ft | 514 kts | 94° |
| 2026-05-04 09:49 | 43.55721 | 78.93202 | 40971 ft | 515 kts | 94° |
| 2026-05-04 09:51 | 43.54849 | 79.27802 | 40973 ft | 517 kts | 94° |
| 2026-05-04 09:51 | 43.54581 | 79.37693 | 40972 ft | 516 kts | 94° |
| 2026-05-04 09:52 | 43.54303 | 79.47579 | 40965 ft | 516 kts | 94° |
| 2026-05-04 09:52 | 43.54017 | 79.57448 | 40981 ft | 515 kts | 95° |
| 2026-05-04 09:53 | 43.53723 | 79.67312 | 40976 ft | 514 kts | 95° |
| 2026-05-04 09:53 | 43.53421 | 79.77157 | 40977 ft | 515 kts | 95° |
| 2026-05-04 09:54 | 43.53113 | 79.87013 | 40992 ft | 515 kts | 95° |
| 2026-05-04 09:54 | 43.52794 | 79.96872 | 41007 ft | 515 kts | 95° |
| 2026-05-04 09:55 | 43.52465 | 80.06731 | 40993 ft | 515 kts | 95° |
| 2026-05-04 09:55 | 43.52129 | 80.16593 | 41008 ft | 515 kts | 95° |
| 2026-05-04 09:56 | 43.51784 | 80.26465 | 41011 ft | 516 kts | 95° |
| 2026-05-04 09:56 | 43.51431 | 80.36337 | 41002 ft | 516 kts | 95° |
| 2026-05-04 09:57 | 43.51070 | 80.46205 | 41015 ft | 516 kts | 95° |
| 2026-05-04 09:57 | 43.50700 | 80.56070 | 41016 ft | 516 kts | 96° |
| 2026-05-04 09:58 | 43.50321 | 80.65951 | 41010 ft | 517 kts | 96° |
| 2026-05-04 09:58 | 43.49941 | 80.75840 | 41005 ft | 517 kts | 95° |
| 2026-05-04 10:00 | 43.49395 | 81.15469 | 41015 ft | 519 kts | 94° |
| 2026-05-04 10:04 | 43.47972 | 81.84859 | 40967 ft | 517 kts | 95° |
| 2026-05-04 10:04 | 43.47719 | 81.94767 | 40971 ft | 518 kts | 95° |
| 2026-05-04 10:05 | 43.47460 | 82.04674 | 40964 ft | 518 kts | 95° |
| 2026-05-04 10:05 | 43.47194 | 82.14582 | 40958 ft | 517 kts | 95° |
| 2026-05-04 10:06 | 43.46921 | 82.24473 | 40958 ft | 517 kts | 95° |
| 2026-05-04 10:06 | 43.46638 | 82.34368 | 40959 ft | 517 kts | 95° |
| 2026-05-04 10:08 | 43.45582 | 82.69018 | 40952 ft | 518 kts | 95° |
| 2026-05-04 10:08 | 43.45261 | 82.78921 | 40953 ft | 518 kts | 95° |
| 2026-05-04 10:09 | 43.44930 | 82.88837 | 40978 ft | 519 kts | 95° |
| 2026-05-04 10:09 | 43.44590 | 82.98765 | 40978 ft | 519 kts | 96° |
| 2026-05-04 10:10 | 43.44243 | 83.08691 | 40987 ft | 519 kts | 96° |
| 2026-05-04 10:10 | 43.43887 | 83.18610 | 40992 ft | 519 kts | 96° |
| 2026-05-04 10:11 | 43.43522 | 83.28545 | 40993 ft | 521 kts | 96° |
| 2026-05-04 10:11 | 43.43148 | 83.38490 | 40995 ft | 519 kts | 96° |
| 2026-05-04 10:12 | 43.42488 | 83.48340 | 41003 ft | 516 kts | 100° |
| 2026-05-04 10:12 | 43.41561 | 83.58136 | 41000 ft | 516 kts | 101° |
| 2026-05-04 10:13 | 43.40655 | 83.67938 | 41004 ft | 517 kts | 100° |
| 2026-05-04 10:13 | 43.39795 | 83.77753 | 41001 ft | 517 kts | 100° |
| 2026-05-04 10:14 | 43.38947 | 83.87569 | 40996 ft | 517 kts | 100° |
| 2026-05-04 10:16 | 43.35468 | 84.26788 | 40983 ft | 518 kts | 101° |
| 2026-05-04 10:16 | 43.34576 | 84.36601 | 40978 ft | 519 kts | 101° |
| 2026-05-04 10:17 | 43.33659 | 84.46437 | 40977 ft | 519 kts | 101° |
| 2026-05-04 10:19 | 43.30019 | 84.84118 | 40973 ft | 521 kts | 101° |
| 2026-05-04 10:19 | 43.29052 | 84.93951 | 40957 ft | 519 kts | 101° |
| 2026-05-04 10:20 | 43.28073 | 85.03757 | 40957 ft | 519 kts | 101° |
| 2026-05-04 10:20 | 43.27087 | 85.13575 | 40963 ft | 520 kts | 101° |
| 2026-05-04 10:21 | 43.26095 | 85.23422 | 40965 ft | 521 kts | 101° |
| 2026-05-04 10:21 | 43.25094 | 85.33249 | 40948 ft | 520 kts | 102° |
| 2026-05-04 10:22 | 43.23568 | 85.47992 | 40958 ft | 522 kts | 101° |
| 2026-05-04 10:23 | 43.22542 | 85.57852 | 40971 ft | 523 kts | 101° |
| 2026-05-04 10:25 | 43.19911 | 85.97414 | 41003 ft | 530 kts | 77° |
| 2026-05-04 10:25 | 43.21066 | 86.02200 | 41014 ft | 532 kts | 66° |
| 2026-05-04 10:25 | 43.22811 | 86.06674 | 41015 ft | 532 kts | 58° |
| 2026-05-04 10:26 | 43.26821 | 86.15219 | 41003 ft | 534 kts | 56° |
| 2026-05-04 10:26 | 43.30951 | 86.23598 | 41029 ft | 533 kts | 55° |
| 2026-05-04 10:27 | 43.35143 | 86.32100 | 41032 ft | 535 kts | 56° |
| 2026-05-04 10:27 | 43.39281 | 86.40579 | 41040 ft | 534 kts | 56° |
| 2026-05-04 10:28 | 43.43373 | 86.49032 | 41027 ft | 535 kts | 56° |
| 2026-05-04 10:28 | 43.47502 | 86.57559 | 41000 ft | 534 kts | 55° |
| 2026-05-04 10:29 | 43.51644 | 86.66031 | 40993 ft | 534 kts | 55° |
| 2026-05-04 10:29 | 43.55774 | 86.74557 | 40967 ft | 535 kts | 56° |
| 2026-05-04 10:30 | 43.59855 | 86.83172 | 40963 ft | 537 kts | 56° |
| 2026-05-04 10:30 | 43.63921 | 86.91821 | 40933 ft | 537 kts | 56° |
| 2026-05-04 10:31 | 43.67992 | 87.00463 | 40918 ft | 537 kts | 56° |
| 2026-05-04 10:32 | 43.82209 | 87.30833 | 40856 ft | 538 kts | 56° |
| 2026-05-04 10:33 | 43.86257 | 87.39561 | 40856 ft | 540 kts | 56° |
| 2026-05-04 10:33 | 43.90312 | 87.48329 | 40856 ft | 540 kts | 56° |
| 2026-05-04 10:34 | 43.94509 | 87.56956 | 40857 ft | 539 kts | 51° |
| 2026-05-04 10:34 | 43.99112 | 87.65150 | 40851 ft | 539 kts | 49° |
| 2026-05-04 10:35 | 44.03742 | 87.73342 | 40850 ft | 539 kts | 50° |
| 2026-05-04 10:35 | 44.08306 | 87.81627 | 40838 ft | 540 kts | 50° |
| 2026-05-04 10:36 | 44.12834 | 87.89967 | 40831 ft | 540 kts | 51° |
| 2026-05-04 10:36 | 44.16841 | 87.98802 | 40832 ft | 543 kts | 66° |
| 2026-05-04 10:37 | 44.18990 | 88.08868 | 40844 ft | 543 kts | 77° |
| 2026-05-04 10:37 | 44.20556 | 88.19180 | 40851 ft | 545 kts | 79° |
| 2026-05-04 10:39 | 44.25813 | 88.55521 | 40820 ft | 548 kts | 78° |
| 2026-05-04 10:40 | 44.27326 | 88.65941 | 40810 ft | 548 kts | 78° |
| 2026-05-04 10:40 | 44.28819 | 88.76305 | 40795 ft | 548 kts | 79° |
| 2026-05-04 10:41 | 44.30313 | 88.86748 | 40793 ft | 548 kts | 78° |
| 2026-05-04 10:41 | 44.31797 | 88.97201 | 40786 ft | 549 kts | 78° |
| 2026-05-04 10:42 | 44.33283 | 89.07737 | 40785 ft | 549 kts | 79° |
| 2026-05-04 10:42 | 44.34749 | 89.18209 | 40782 ft | 549 kts | 79° |
| 2026-05-04 10:43 | 44.36195 | 89.28609 | 40770 ft | 550 kts | 79° |
| 2026-05-04 10:45 | 44.40977 | 89.70742 | 40758 ft | 547 kts | 98° |
| 2026-05-04 10:45 | 44.39316 | 89.81043 | 40756 ft | 543 kts | 109° |
| 2026-05-04 10:46 | 44.37129 | 89.91142 | 40757 ft | 543 kts | 110° |
| 2026-05-04 10:46 | 44.34872 | 90.01208 | 40741 ft | 543 kts | 110° |
| 2026-05-04 10:47 | 44.32634 | 90.11290 | 40753 ft | 544 kts | 110° |
| 2026-05-04 10:47 | 44.30405 | 90.21400 | 40740 ft | 545 kts | 110° |
| 2026-05-04 10:49 | 44.21408 | 90.61830 | 40749 ft | 547 kts | 110° |
| 2026-05-04 10:50 | 44.19133 | 90.71929 | 40752 ft | 546 kts | 110° |
| 2026-05-04 10:52 | 44.09931 | 91.12331 | 40754 ft | 548 kts | 110° |
| 2026-05-04 10:52 | 44.07602 | 91.22432 | 40755 ft | 549 kts | 110° |
| 2026-05-04 10:54 | 43.98133 | 91.62884 | 40772 ft | 551 kts | 111° |
| 2026-05-04 10:56 | 43.88456 | 92.03239 | 40787 ft | 552 kts | 111° |
| 2026-05-04 10:57 | 43.86013 | 92.13325 | 40788 ft | 552 kts | 111° |
| 2026-05-04 10:57 | 43.83574 | 92.23346 | 40788 ft | 552 kts | 111° |
| 2026-05-04 10:58 | 43.81112 | 92.33418 | 40779 ft | 553 kts | 111° |
| 2026-05-04 10:58 | 43.78635 | 92.43505 | 40785 ft | 554 kts | 111° |
| 2026-05-04 10:59 | 43.76145 | 92.53603 | 40777 ft | 555 kts | 111° |
| 2026-05-04 10:59 | 43.73646 | 92.63694 | 40768 ft | 555 kts | 111° |
| 2026-05-04 11:00 | 43.71136 | 92.73780 | 40770 ft | 556 kts | 111° |
| 2026-05-04 11:01 | 43.62287 | 93.09490 | 40782 ft | 570 kts | 109° |
| 2026-05-04 11:02 | 43.61105 | 93.14722 | 40780 ft | 571 kts | 109° |
| 2026-05-04 11:05 | 43.43460 | 93.91320 | 40766 ft | 574 kts | 110° |
| 2026-05-04 11:06 | 43.40993 | 94.01778 | 40774 ft | 575 kts | 110° |
| 2026-05-04 11:06 | 43.38519 | 94.12220 | 40774 ft | 574 kts | 110° |
| 2026-05-04 11:10 | 43.20931 | 94.85080 | 40727 ft | 574 kts | 110° |
| 2026-05-04 11:12 | 43.10661 | 95.26591 | 40653 ft | 576 kts | 110° |
| 2026-05-04 11:12 | 43.08061 | 95.36966 | 40639 ft | 576 kts | 109° |
| 2026-05-04 11:13 | 43.05473 | 95.47253 | 40641 ft | 576 kts | 109° |
| 2026-05-04 11:13 | 43.02861 | 95.57597 | 40634 ft | 575 kts | 110° |
| 2026-05-04 11:14 | 43.02420 | 95.59337 | 40633 ft | 575 kts | 110° |
| 2026-05-04 11:16 | 42.89656 | 96.09227 | 40638 ft | 576 kts | 110° |
| 2026-05-04 11:16 | 42.86983 | 96.19530 | 40630 ft | 577 kts | 109° |
| 2026-05-04 11:17 | 42.84298 | 96.29833 | 40634 ft | 577 kts | 109° |
| 2026-05-04 11:19 | 42.73477 | 96.70948 | 40622 ft | 577 kts | 109° |
| 2026-05-04 11:19 | 42.70750 | 96.81200 | 40622 ft | 576 kts | 110° |
| 2026-05-04 11:20 | 42.68014 | 96.91441 | 40617 ft | 576 kts | 109° |
| 2026-05-04 11:20 | 42.65275 | 97.01654 | 40609 ft | 575 kts | 109° |
| 2026-05-04 11:22 | 42.54236 | 97.42384 | 40598 ft | 575 kts | 110° |
| 2026-05-04 11:23 | 42.51472 | 97.52479 | 40600 ft | 575 kts | 110° |
| 2026-05-04 11:25 | 42.41675 | 97.87925 | 40593 ft | 573 kts | 110° |
| 2026-05-04 11:25 | 42.38859 | 97.98019 | 40590 ft | 573 kts | 110° |
| 2026-05-04 11:27 | 42.28776 | 98.44003 | 40589 ft | 564 kts | 91° |
| 2026-05-04 11:28 | 42.28248 | 98.54558 | 40584 ft | 563 kts | 90° |
| 2026-05-04 11:28 | 42.27738 | 98.65114 | 40576 ft | 563 kts | 90° |
| 2026-05-04 11:29 | 42.27191 | 98.75676 | 40586 ft | 563 kts | 91° |
| 2026-05-04 11:29 | 42.26616 | 98.86217 | 40578 ft | 563 kts | 91° |
| 2026-05-04 11:33 | 42.22314 | 99.59919 | 40569 ft | 562 kts | 91° |
| 2026-05-04 11:33 | 42.21663 | 99.70421 | 40560 ft | 561 kts | 91° |
| 2026-05-04 11:34 | 42.21008 | 99.80841 | 40567 ft | 561 kts | 91° |
| 2026-05-04 11:34 | 42.20334 | 99.91392 | 40572 ft | 560 kts | 92° |
| 2026-05-04 11:35 | 42.19656 | 100.01843 | 40564 ft | 559 kts | 92° |
| 2026-05-04 11:35 | 42.18969 | 100.12299 | 40570 ft | 559 kts | 92° |
| 2026-05-04 11:36 | 42.18273 | 100.22743 | 40579 ft | 559 kts | 92° |
| 2026-05-04 11:36 | 42.17568 | 100.33182 | 40564 ft | 559 kts | 92° |
| 2026-05-04 11:37 | 42.16858 | 100.43556 | 40568 ft | 560 kts | 92° |
| 2026-05-04 11:37 | 42.16133 | 100.54000 | 40567 ft | 560 kts | 92° |
| 2026-05-04 11:38 | 42.15399 | 100.64441 | 40570 ft | 559 kts | 92° |
| 2026-05-04 11:38 | 42.14656 | 100.74873 | 40570 ft | 559 kts | 92° |
| 2026-05-04 11:39 | 42.13904 | 100.85295 | 40569 ft | 559 kts | 92° |
| 2026-05-04 11:40 | 42.09500 | 101.16119 | 40578 ft | 564 kts | 108° |
| 2026-05-04 11:41 | 42.08196 | 101.21104 | 40578 ft | 565 kts | 108° |
| 2026-05-04 11:41 | 42.05542 | 101.31047 | 40587 ft | 565 kts | 108° |
| 2026-05-04 11:42 | 42.02898 | 101.40962 | 40579 ft | 562 kts | 108° |
| 2026-05-04 11:42 | 42.00273 | 101.50847 | 40585 ft | 561 kts | 108° |
| 2026-05-04 11:43 | 41.97651 | 101.60715 | 40592 ft | 561 kts | 108° |
| 2026-05-04 11:43 | 41.95018 | 101.70583 | 40595 ft | 561 kts | 108° |
| 2026-05-04 11:44 | 41.92377 | 101.80439 | 40595 ft | 561 kts | 108° |
| 2026-05-04 11:44 | 41.89728 | 101.90283 | 40602 ft | 561 kts | 108° |
| 2026-05-04 11:45 | 41.87072 | 102.00114 | 40605 ft | 561 kts | 108° |
| 2026-05-04 11:45 | 41.84406 | 102.09942 | 40612 ft | 560 kts | 109° |
| 2026-05-04 11:46 | 41.81741 | 102.19726 | 40609 ft | 558 kts | 109° |
| 2026-05-04 11:46 | 41.79068 | 102.29502 | 40609 ft | 558 kts | 109° |
| 2026-05-04 11:47 | 41.76389 | 102.39261 | 40614 ft | 558 kts | 109° |
| 2026-05-04 11:47 | 41.73704 | 102.49004 | 40615 ft | 557 kts | 109° |
| 2026-05-04 11:48 | 41.71014 | 102.58729 | 40599 ft | 557 kts | 109° |
| 2026-05-04 11:48 | 41.68316 | 102.68444 | 40617 ft | 557 kts | 109° |
| 2026-05-04 11:49 | 41.65611 | 102.78154 | 40629 ft | 557 kts | 109° |
| 2026-05-04 11:49 | 41.62920 | 102.87776 | 40616 ft | 556 kts | 109° |
| 2026-05-04 11:50 | 41.60206 | 102.97440 | 40619 ft | 555 kts | 109° |
| 2026-05-04 11:50 | 41.57487 | 103.07092 | 40623 ft | 555 kts | 109° |
| 2026-05-04 11:51 | 41.55198 | 103.15177 | 40623 ft | 555 kts | 109° |
| 2026-05-04 11:51 | 41.52462 | 103.24803 | 40619 ft | 554 kts | 109° |
| 2026-05-04 11:52 | 41.49724 | 103.34403 | 40622 ft | 554 kts | 109° |
| 2026-05-04 11:52 | 41.46977 | 103.44002 | 40623 ft | 554 kts | 109° |
| 2026-05-04 11:53 | 41.44223 | 103.53591 | 40627 ft | 553 kts | 109° |
| 2026-05-04 11:53 | 41.41467 | 103.63150 | 40619 ft | 553 kts | 110° |
| 2026-05-04 11:55 | 41.30372 | 104.01278 | 40621 ft | 551 kts | 110° |
| 2026-05-04 11:56 | 41.27604 | 104.10702 | 40627 ft | 551 kts | 110° |
| 2026-05-04 11:56 | 41.24808 | 104.20191 | 40624 ft | 551 kts | 110° |
| 2026-05-04 11:57 | 41.22004 | 104.29667 | 40625 ft | 551 kts | 110° |
| 2026-05-04 11:57 | 41.19197 | 104.39124 | 40636 ft | 550 kts | 110° |
| 2026-05-04 11:58 | 41.16386 | 104.48557 | 40640 ft | 550 kts | 110° |
| 2026-05-04 11:58 | 41.13565 | 104.57991 | 40644 ft | 550 kts | 110° |
| 2026-05-04 11:59 | 41.10738 | 104.67413 | 40648 ft | 550 kts | 110° |
| 2026-05-04 11:59 | 41.07823 | 104.76797 | 40649 ft | 550 kts | 112° |
| 2026-05-04 12:00 | 41.04659 | 104.86032 | 40657 ft | 551 kts | 113° |
| 2026-05-04 12:00 | 41.01467 | 104.95253 | 40665 ft | 551 kts | 113° |
| 2026-05-04 12:01 | 40.98308 | 105.04482 | 40659 ft | 550 kts | 112° |
| 2026-05-04 12:02 | 40.87284 | 105.36738 | 40680 ft | 550 kts | 112° |
| 2026-05-04 12:03 | 40.84119 | 105.45927 | 40677 ft | 549 kts | 112° |
| 2026-05-04 12:03 | 40.80945 | 105.55111 | 40682 ft | 549 kts | 112° |
| 2026-05-04 12:04 | 40.77767 | 105.64275 | 40706 ft | 549 kts | 113° |
| 2026-05-04 12:04 | 40.74583 | 105.73431 | 40695 ft | 549 kts | 112° |
| 2026-05-04 12:05 | 40.71390 | 105.82582 | 40699 ft | 549 kts | 113° |
| 2026-05-04 12:05 | 40.68189 | 105.91726 | 40696 ft | 549 kts | 113° |
| 2026-05-04 12:06 | 40.64981 | 106.00859 | 40708 ft | 549 kts | 112° |
| 2026-05-04 12:06 | 40.61770 | 106.09973 | 40722 ft | 549 kts | 113° |
| 2026-05-04 12:07 | 40.58550 | 106.19084 | 40711 ft | 549 kts | 113° |
| 2026-05-04 12:07 | 40.55322 | 106.28189 | 40718 ft | 549 kts | 113° |
| 2026-05-04 12:08 | 40.52084 | 106.37290 | 40707 ft | 550 kts | 113° |
| 2026-05-04 12:08 | 40.48841 | 106.46378 | 40697 ft | 549 kts | 113° |
| 2026-05-04 12:09 | 40.45594 | 106.55448 | 40691 ft | 549 kts | 113° |
| 2026-05-04 12:09 | 40.42363 | 106.64449 | 40690 ft | 549 kts | 113° |
| 2026-05-04 12:10 | 40.39102 | 106.73502 | 40695 ft | 549 kts | 113° |
| 2026-05-04 12:10 | 40.35852 | 106.82492 | 40689 ft | 540 kts | 113° |
| 2026-05-04 12:11 | 40.32830 | 106.91423 | 40696 ft | 532 kts | 105° |
| 2026-05-04 12:11 | 40.31667 | 107.00829 | 40700 ft | 519 kts | 84° |
| 2026-05-04 12:12 | 40.32462 | 107.10152 | 40702 ft | 514 kts | 76° |
| 2026-05-04 12:12 | 40.33638 | 107.19389 | 40703 ft | 513 kts | 75° |
| 2026-05-04 12:14 | 40.38232 | 107.56346 | 40706 ft | 513 kts | 76° |
| 2026-05-04 12:15 | 40.39341 | 107.65601 | 40701 ft | 513 kts | 76° |
| 2026-05-04 12:15 | 40.40443 | 107.74854 | 40717 ft | 514 kts | 76° |
| 2026-05-04 12:16 | 40.41539 | 107.84113 | 40702 ft | 513 kts | 76° |
| 2026-05-04 12:16 | 40.42626 | 107.93368 | 40703 ft | 513 kts | 76° |
| 2026-05-04 12:17 | 40.43706 | 108.02620 | 40702 ft | 513 kts | 77° |
| 2026-05-04 12:17 | 40.44775 | 108.11881 | 40702 ft | 513 kts | 77° |
| 2026-05-04 12:18 | 40.45837 | 108.21157 | 40705 ft | 513 kts | 77° |
| 2026-05-04 12:18 | 40.46891 | 108.30423 | 40705 ft | 513 kts | 77° |
| 2026-05-04 12:19 | 40.47939 | 108.39699 | 40702 ft | 513 kts | 77° |
| 2026-05-04 12:19 | 40.48980 | 108.48979 | 40708 ft | 513 kts | 77° |
| 2026-05-04 12:20 | 40.50012 | 108.58253 | 40706 ft | 513 kts | 77° |
| 2026-05-04 12:20 | 40.51037 | 108.67523 | 40705 ft | 513 kts | 77° |
| 2026-05-04 12:21 | 40.52055 | 108.76808 | 40710 ft | 513 kts | 77° |
| 2026-05-04 12:21 | 40.53057 | 108.86020 | 40714 ft | 512 kts | 77° |
| 2026-05-04 12:22 | 40.54059 | 108.95297 | 40711 ft | 512 kts | 77° |
| 2026-05-04 12:22 | 40.55053 | 109.04568 | 40718 ft | 512 kts | 77° |
| 2026-05-04 12:23 | 40.56040 | 109.13852 | 40740 ft | 512 kts | 78° |
| 2026-05-04 12:23 | 40.57018 | 109.23120 | 40737 ft | 512 kts | 78° |
| 2026-05-04 12:24 | 40.57989 | 109.32403 | 40727 ft | 512 kts | 78° |
| 2026-05-04 12:24 | 40.58952 | 109.41677 | 40739 ft | 512 kts | 78° |
| 2026-05-04 12:25 | 40.59909 | 109.50964 | 40743 ft | 512 kts | 78° |
| 2026-05-04 12:25 | 40.60857 | 109.60245 | 40749 ft | 511 kts | 78° |
| 2026-05-04 12:26 | 40.61798 | 109.69525 | 40754 ft | 511 kts | 78° |
| 2026-05-04 12:26 | 40.62731 | 109.78807 | 40756 ft | 512 kts | 78° |
| 2026-05-04 12:27 | 40.63656 | 109.88087 | 40762 ft | 512 kts | 78° |
| 2026-05-04 12:27 | 40.64522 | 109.97386 | 40778 ft | 514 kts | 82° |
| 2026-05-04 12:28 | 40.64662 | 110.06824 | 40768 ft | 516 kts | 86° |
| 2026-05-04 12:28 | 40.64623 | 110.16273 | 40778 ft | 516 kts | 87° |
| 2026-05-04 12:29 | 40.64548 | 110.25728 | 40791 ft | 516 kts | 87° |
| 2026-05-04 12:29 | 40.64475 | 110.35182 | 40796 ft | 516 kts | 87° |
| 2026-05-04 12:30 | 40.64405 | 110.44629 | 40796 ft | 516 kts | 87° |
| 2026-05-04 12:30 | 40.64328 | 110.54079 | 40802 ft | 516 kts | 87° |
| 2026-05-04 12:31 | 40.64246 | 110.63531 | 40808 ft | 516 kts | 87° |
| 2026-05-04 12:31 | 40.64157 | 110.72977 | 40814 ft | 516 kts | 87° |
| 2026-05-04 12:32 | 40.63998 | 110.87143 | 40813 ft | 515 kts | 87° |
| 2026-05-04 12:33 | 40.63894 | 110.96560 | 40817 ft | 515 kts | 87° |
| 2026-05-04 12:33 | 40.63780 | 111.05982 | 40814 ft | 515 kts | 87° |
| 2026-05-04 12:34 | 40.63658 | 111.15339 | 40829 ft | 515 kts | 88° |
| 2026-05-04 12:34 | 40.63532 | 111.24767 | 40820 ft | 515 kts | 88° |
| 2026-05-04 12:35 | 40.63390 | 111.34201 | 40821 ft | 515 kts | 88° |
| 2026-05-04 12:35 | 40.63240 | 111.43627 | 40826 ft | 515 kts | 88° |
| 2026-05-04 12:36 | 40.63109 | 111.51532 | 40826 ft | 515 kts | 88° |
| 2026-05-04 12:36 | 40.62948 | 111.60960 | 40832 ft | 515 kts | 88° |
| 2026-05-04 12:37 | 40.62779 | 111.70392 | 40830 ft | 515 kts | 88° |
| 2026-05-04 12:37 | 40.62602 | 111.79820 | 40850 ft | 515 kts | 88° |
| 2026-05-04 12:38 | 40.62418 | 111.89247 | 40839 ft | 515 kts | 88° |
| 2026-05-04 12:38 | 40.62247 | 111.98669 | 40846 ft | 515 kts | 88° |
| 2026-05-04 12:39 | 40.62043 | 112.08029 | 40849 ft | 515 kts | 88° |
| 2026-05-04 12:39 | 40.61826 | 112.17458 | 40850 ft | 515 kts | 88° |
| 2026-05-04 12:40 | 40.61604 | 112.26876 | 40863 ft | 515 kts | 88° |
| 2026-05-04 12:40 | 40.61378 | 112.36294 | 40854 ft | 515 kts | 88° |
| 2026-05-04 12:41 | 40.61147 | 112.45719 | 40859 ft | 515 kts | 89° |
| 2026-05-04 12:41 | 40.60841 | 112.55135 | 40856 ft | 515 kts | 90° |
| 2026-05-04 12:42 | 40.60272 | 112.64539 | 40850 ft | 517 kts | 91° |
| 2026-05-04 12:42 | 40.59667 | 112.73967 | 40847 ft | 517 kts | 91° |
| 2026-05-04 12:43 | 40.58909 | 112.83373 | 40842 ft | 517 kts | 93° |
| 2026-05-04 12:43 | 40.58201 | 112.92779 | 40843 ft | 516 kts | 92° |
| 2026-05-04 12:44 | 40.57586 | 113.02188 | 40841 ft | 516 kts | 91° |
| 2026-05-04 12:44 | 40.56971 | 113.11593 | 40844 ft | 516 kts | 91° |
| 2026-05-04 12:45 | 40.56337 | 113.20999 | 40830 ft | 516 kts | 92° |
| 2026-05-04 12:45 | 40.55687 | 113.30404 | 40832 ft | 516 kts | 92° |
| 2026-05-04 12:46 | 40.55030 | 113.39799 | 40830 ft | 516 kts | 92° |
| 2026-05-04 12:46 | 40.54365 | 113.49193 | 40831 ft | 516 kts | 92° |
| 2026-05-04 12:47 | 40.53694 | 113.58581 | 40829 ft | 515 kts | 92° |
| 2026-05-04 12:47 | 40.53020 | 113.67894 | 40829 ft | 515 kts | 92° |
| 2026-05-04 12:48 | 40.52333 | 113.77268 | 40816 ft | 515 kts | 92° |
| 2026-05-04 12:48 | 40.51639 | 113.86627 | 40817 ft | 515 kts | 92° |
| 2026-05-04 12:48 | 40.51290 | 113.91319 | 40671 ft | 515 kts | 92° |
| 2026-05-04 12:49 | 40.50940 | 113.95980 | 40328 ft | 512 kts | 92° |
| 2026-05-04 12:49 | 40.50590 | 114.00632 | 39654 ft | 512 kts | 92° |
| 2026-05-04 12:49 | 40.50315 | 114.05290 | 38987 ft | 511 kts | 89° |
| 2026-05-04 12:49 | 40.50123 | 114.09941 | 38336 ft | 509 kts | 89° |
| 2026-05-04 12:50 | 40.49963 | 114.14580 | 37515 ft | 508 kts | 88° |
| 2026-05-04 12:50 | 40.49805 | 114.19202 | 36736 ft | 506 kts | 88° |
| 2026-05-04 12:50 | 40.49635 | 114.23812 | 36019 ft | 504 kts | 89° |
| 2026-05-04 12:50 | 40.49453 | 114.28394 | 35323 ft | 502 kts | 89° |
| 2026-05-04 12:51 | 40.49260 | 114.32963 | 34578 ft | 500 kts | 89° |
| 2026-05-04 12:51 | 40.49060 | 114.37521 | 33811 ft | 499 kts | 89° |
| 2026-05-04 12:51 | 40.48857 | 114.42068 | 32903 ft | 500 kts | 89° |
| 2026-05-04 12:51 | 40.48652 | 114.46623 | 31993 ft | 501 kts | 89° |
| 2026-05-04 12:52 | 40.48445 | 114.51189 | 31105 ft | 501 kts | 89° |
| 2026-05-04 12:52 | 40.48235 | 114.55756 | 30420 ft | 498 kts | 89° |
| 2026-05-04 12:52 | 40.48024 | 114.60268 | 29843 ft | 493 kts | 89° |
| 2026-05-04 12:52 | 40.47813 | 114.64735 | 29190 ft | 488 kts | 89° |
| 2026-05-04 12:53 | 40.47604 | 114.69152 | 28585 ft | 482 kts | 90° |
| 2026-05-04 12:53 | 40.47396 | 114.73521 | 27997 ft | 477 kts | 90° |
| 2026-05-04 12:53 | 40.47189 | 114.77847 | 27427 ft | 472 kts | 90° |
| 2026-05-04 12:53 | 40.46982 | 114.82117 | 26846 ft | 466 kts | 90° |
| 2026-05-04 12:54 | 40.46776 | 114.86350 | 26277 ft | 462 kts | 90° |
| 2026-05-04 12:54 | 40.46573 | 114.90535 | 25706 ft | 458 kts | 90° |
| 2026-05-04 12:54 | 40.46368 | 114.94684 | 25130 ft | 453 kts | 90° |
| 2026-05-04 12:54 | 40.46165 | 114.98800 | 24588 ft | 449 kts | 91° |
| 2026-05-04 12:55 | 40.45963 | 115.02879 | 24024 ft | 446 kts | 91° |
| 2026-05-04 12:55 | 40.45765 | 115.06875 | 23458 ft | 443 kts | 91° |
| 2026-05-04 12:55 | 40.45562 | 115.10893 | 22827 ft | 439 kts | 92° |
| 2026-05-04 12:55 | 40.45358 | 115.14869 | 22252 ft | 434 kts | 92° |